Airfield :
LOGIN :

Register | Disclaimer

   EN    FR    IT 

 










Legend :    VFR   Marginal VFR   IFR   Intensive IFR   Very Intensive IFR
Visi :
Ceiling :
>= 8 km
>= 3000ft
5 to 8 km
1000 to 3000 ft
1500m to 5 km
500 to 1000 ft
800 to 1500m
200 to 500 ft
< 800m
< 200 ft
Symbols :   Thunderstorms  Fog  Heavy snow  Heavy precipitations  Wind > 20 kt
SIGMETs :     Misc.  Thunderstorms  Icing  Turbulence  Mountain Waves  Volcanic Ashes






- Airport Elevation : 302 ft


LFPM - Melun Villaroche

CURRENT METAR :
  • 150700Z AUTO 20010KT 2700 -RA BR BKN005 OVC009 13/13 Q1007

EXPIRED METARs :
  • 150630Z AUTO 16006KT 9999 BKN007 BKN012 OVC019 13/13 Q1006
  • 150600Z AUTO 17006KT 9999 4600 BKN009 BKN013 BKN018 13/13 Q1006
  • 150530Z AUTO 19006KT 6000 -RA FEW006 SCT011 BKN016 13/13 Q1006
  • 150500Z AUTO 20006KT 6000 RA SCT007 BKN015 BKN022 13/13 Q1006
  • 150430Z AUTO 20007KT 4800 RA BR SCT006 BKN014 BKN030 13/13 Q1006

Expired Forecast.
ATIS : +33 1 64 14 28 44



MET'MAP, your aeronautical weather chart ! - Copyright ORBIFLY December 2007 - Disclaimer

ORBIFLY MET'MAP TEAM :

Programming & Development : Alexandra Zaïnal
Concept & Development : Baudouin d'Aumeries
Co-Development & Prog : Marc-Olivier Méhu
Technical & hardware support : Manuel Goepfert

Contact : metmap@orbifly.com




SOURCES & CREDITS :

   NOAA